createdAt,value
2023-04-02T00:01:34.712Z,0.10
2023-04-02T00:04:03.457Z,0.10
2023-04-02T00:06:33.227Z,0.20
2023-04-02T00:09:04.739Z,0.20
2023-04-02T00:11:34.618Z,0.10
2023-04-02T00:14:05.658Z,0.20
2023-04-02T00:16:33.145Z,0.10
2023-04-02T00:19:02.386Z,0.13
2023-04-02T00:21:33.588Z,0.20
2023-04-02T00:24:01.595Z,0.10
2023-04-02T00:26:36.895Z,0.10
2023-04-02T00:29:05.497Z,0.10
2023-04-02T00:31:33.316Z,0.10
2023-04-02T00:34:01.610Z,0.10
2023-04-02T00:36:30.292Z,0.20
2023-04-02T00:38:59.169Z,0.13
2023-04-02T00:41:29.767Z,0.10
2023-04-02T00:44:01.467Z,0.10
2023-04-02T00:46:34.735Z,0.10
2023-04-02T00:49:04.631Z,0.13
2023-04-02T00:51:32.454Z,0.20
2023-04-02T00:54:04.005Z,0.20
2023-04-02T00:56:32.424Z,0.20
2023-04-02T00:58:59.885Z,0.17
2023-04-02T01:01:28.902Z,0.20
2023-04-02T01:03:58.455Z,0.10
2023-04-02T01:06:30.008Z,0.20
2023-04-02T01:09:16.275Z,0.10
2023-04-02T01:11:43.761Z,0.20
2023-04-02T01:14:18.513Z,0.10
2023-04-02T01:17:06.102Z,0.20
2023-04-02T01:19:52.795Z,0.20
2023-04-02T01:22:20.314Z,0.20
2023-04-02T01:24:47.822Z,0.10
2023-04-02T01:27:17.208Z,0.20
2023-04-02T01:29:48.714Z,0.20
2023-04-02T01:32:17.404Z,0.10
2023-04-02T01:34:46.849Z,0.10
2023-04-02T01:37:14.361Z,0.20
2023-04-02T01:40:01.214Z,0.15
2023-04-02T01:42:31.845Z,0.20
2023-04-02T01:45:07.173Z,0.10
2023-04-02T01:47:34.734Z,0.10
2023-04-02T01:50:06.713Z,0.10
2023-04-02T01:52:36.020Z,0.20
2023-04-02T01:55:03.764Z,0.20
2023-04-02T01:57:31.686Z,0.10
2023-04-02T02:00:00.752Z,0.20
2023-04-02T02:02:28.354Z,0.20
2023-04-02T02:04:55.901Z,0.20
2023-04-02T02:07:23.575Z,0.10
2023-04-02T02:09:51.192Z,0.10
2023-04-02T02:12:18.714Z,0.20
2023-04-02T02:14:50.561Z,0.20
2023-04-02T02:17:26.510Z,0.10
2023-04-02T02:19:55.165Z,0.10
2023-04-02T02:22:32.774Z,0.20
2023-04-02T02:25:01.063Z,0.20
2023-04-02T02:27:28.806Z,0.20
2023-04-02T02:29:57.009Z,0.10
2023-04-02T02:32:26.512Z,0.20
2023-04-02T02:34:59.776Z,0.10
2023-04-02T02:37:31.022Z,0.10
2023-04-02T02:39:59.292Z,0.20
2023-04-02T02:42:27.339Z,0.20
2023-04-02T02:44:55.085Z,0.10
2023-04-02T02:47:32.505Z,0.13
2023-04-02T02:50:14.743Z,0.30
2023-04-02T02:52:42.846Z,0.17
2023-04-02T02:55:14.233Z,0.10
2023-04-02T02:57:51.859Z,0.10
2023-04-02T03:00:21.026Z,0.20
2023-04-02T03:02:50.092Z,0.10
2023-04-02T03:05:20.608Z,0.10
2023-04-02T03:07:48.181Z,0.10
2023-04-02T03:10:19.129Z,0.20
2023-04-02T03:12:48.522Z,0.20
2023-04-02T03:15:36.533Z,0.20
2023-04-02T03:18:05.067Z,0.20
2023-04-02T03:20:37.343Z,0.20
2023-04-02T03:23:08.114Z,0.20
2023-04-02T03:25:37.194Z,0.20
2023-04-02T03:28:05.916Z,0.20
2023-04-02T03:30:41.189Z,0.10
2023-04-02T03:33:35.458Z,0.10
2023-04-02T03:36:12.956Z,0.10
2023-04-02T03:38:42.245Z,0.20
2023-04-02T03:41:13.002Z,0.20
2023-04-02T03:43:41.293Z,0.10
2023-04-02T03:46:12.815Z,0.10
2023-04-02T03:48:41.658Z,0.10
2023-04-02T03:51:19.620Z,0.10
2023-04-02T03:53:47.346Z,0.10
2023-04-02T03:56:27.493Z,0.20
2023-04-02T03:58:56.619Z,0.10
2023-04-02T04:01:28.257Z,0.10
2023-04-02T04:03:56.588Z,0.10
2023-04-02T04:06:24.028Z,0.10
2023-04-02T04:08:54.758Z,0.13
2023-04-02T04:11:27.493Z,0.10
2023-04-02T04:14:02.318Z,0.10
2023-04-02T04:16:53.658Z,0.22
2023-04-02T04:19:40.034Z,0.15
2023-04-02T04:22:19.003Z,0.20
2023-04-02T04:24:47.065Z,0.10
2023-04-02T04:27:33.736Z,0.10
2023-04-02T04:30:20.512Z,0.10
2023-04-02T04:32:51.962Z,0.20
2023-04-02T04:35:22.422Z,0.20
2023-04-02T04:37:53.807Z,0.20
2023-04-02T04:40:21.905Z,0.20
2023-04-02T04:42:49.453Z,0.10
2023-04-02T04:45:23.150Z,0.13
2023-04-02T04:47:52.479Z,0.17
2023-04-02T04:50:23.138Z,0.30
2023-04-02T04:52:50.784Z,0.20
2023-04-02T04:55:24.467Z,0.20
2023-04-02T04:57:52.046Z,0.30
2023-04-02T05:00:38.611Z,0.20
2023-04-02T05:03:13.449Z,0.25
2023-04-02T05:05:41.000Z,0.20
2023-04-02T05:08:13.030Z,0.25
2023-04-02T05:10:45.426Z,0.20
2023-04-02T05:13:32.940Z,0.40
2023-04-02T05:16:19.384Z,0.20
2023-04-02T05:19:04.850Z,0.30
2023-04-02T05:21:40.614Z,0.40
2023-04-02T05:24:27.642Z,0.35
2023-04-02T05:26:55.095Z,0.20
2023-04-02T05:29:26.369Z,0.25
2023-04-02T05:31:59.629Z,0.43
2023-04-02T05:34:28.727Z,0.40
2023-04-02T05:36:56.187Z,0.45
2023-04-02T05:39:24.203Z,0.40
2023-04-02T05:41:58.175Z,0.55
2023-04-02T05:44:27.086Z,0.40
2023-04-02T05:47:02.665Z,0.40
2023-04-02T05:49:32.267Z,0.50
2023-04-02T05:52:01.592Z,0.30
2023-04-02T05:54:31.470Z,0.43
2023-04-02T05:57:01.404Z,0.50
2023-04-02T05:59:32.847Z,0.50
2023-04-02T06:02:04.864Z,0.60
2023-04-02T06:04:51.450Z,0.67
2023-04-02T06:07:28.288Z,0.70
2023-04-02T06:09:55.836Z,0.73
2023-04-02T06:12:32.601Z,0.80
2023-04-02T06:15:00.135Z,0.70
2023-04-02T06:17:27.690Z,1.00
2023-04-02T06:19:55.360Z,1.00
2023-04-02T06:22:28.014Z,0.85
2023-04-02T06:25:02.859Z,0.70
2023-04-02T06:27:30.368Z,0.80
2023-04-02T06:30:00.502Z,0.70
2023-04-02T06:32:28.134Z,0.52
2023-04-02T06:34:55.882Z,0.60
2023-04-02T06:37:25.704Z,0.95
2023-04-02T06:39:53.238Z,1.75
2023-04-02T06:42:22.446Z,2.00
2023-04-02T06:44:50.016Z,1.10
2023-04-02T06:47:20.328Z,0.70
2023-04-02T06:49:48.646Z,0.60
2023-04-02T06:52:21.637Z,0.40
2023-04-02T06:54:49.187Z,0.50
2023-04-02T06:57:16.746Z,0.47
2023-04-02T06:59:44.280Z,0.50
2023-04-02T07:02:21.324Z,0.50
2023-04-02T07:04:48.872Z,0.50
2023-04-02T07:07:16.592Z,0.47
2023-04-02T07:09:44.054Z,0.60
2023-04-02T07:12:12.315Z,0.40
2023-04-02T07:14:39.871Z,0.30
2023-04-02T07:17:07.353Z,0.40
2023-04-02T07:19:34.820Z,0.40
2023-04-02T07:22:02.572Z,0.38
2023-04-02T07:24:30.054Z,0.40
2023-04-02T07:26:57.511Z,0.30
2023-04-02T07:29:24.981Z,0.30
2023-04-02T07:31:54.001Z,0.30
2023-04-02T07:34:21.673Z,0.30
2023-04-02T07:36:49.314Z,0.30
2023-04-02T07:39:17.184Z,0.47
2023-04-02T07:41:57.627Z,0.50
2023-04-02T07:44:25.178Z,0.60
2023-04-02T07:46:52.643Z,0.50
2023-04-02T07:49:20.448Z,0.40
2023-04-02T07:51:47.965Z,0.40
2023-04-02T07:54:15.635Z,0.40
2023-04-02T07:56:43.168Z,0.30
2023-04-02T07:59:11.337Z,0.40
2023-04-02T08:01:39.305Z,0.50
2023-04-02T08:04:07.997Z,1.10
2023-04-02T08:06:35.744Z,0.50
2023-04-02T08:09:03.379Z,1.00
2023-04-02T08:11:31.974Z,0.85
2023-04-02T08:13:59.500Z,0.40
2023-04-02T08:16:27.909Z,0.30
2023-04-02T08:18:55.867Z,0.45
2023-04-02T08:21:23.388Z,0.40
2023-04-02T08:23:50.948Z,0.77
2023-04-02T08:26:19.007Z,3.80
2023-04-02T08:28:46.900Z,1.83
2023-04-02T08:31:14.601Z,1.70
2023-04-02T08:33:42.125Z,0.73
2023-04-02T08:36:13.525Z,0.80
2023-04-02T08:38:41.109Z,0.80
2023-04-02T08:41:08.534Z,1.10
2023-04-02T08:43:51.577Z,0.45
2023-04-02T08:46:31.413Z,0.33
2023-04-02T08:48:59.320Z,0.40
2023-04-02T08:51:28.181Z,0.40
2023-04-02T08:53:56.935Z,0.80
2023-04-02T08:56:28.195Z,0.77
2023-04-02T08:58:56.178Z,1.33
2023-04-02T09:01:23.936Z,0.40
2023-04-02T09:03:51.972Z,4.68
2023-04-02T09:06:19.869Z,2.75
2023-04-02T09:08:48.668Z,3.88
2023-04-02T09:11:20.188Z,5.57
2023-04-02T09:13:48.045Z,10.23
2023-04-02T09:16:16.903Z,8.95
2023-04-02T09:18:44.861Z,2.20
2023-04-02T09:21:19.911Z,3.20
2023-04-02T09:23:47.741Z,4.17
2023-04-02T09:26:24.562Z,3.42
2023-04-02T09:28:52.441Z,1.95
2023-04-02T09:31:20.930Z,1.48
2023-04-02T09:33:49.042Z,1.98
2023-04-02T09:36:40.095Z,1.17
2023-04-02T09:39:16.376Z,0.40
2023-04-02T09:41:48.044Z,1.00
2023-04-02T09:44:23.704Z,2.00
2023-04-02T09:46:55.268Z,0.50
2023-04-02T09:49:24.000Z,3.07
2023-04-02T09:52:07.619Z,2.38
2023-04-02T09:54:41.837Z,10.43
2023-04-02T09:57:18.705Z,2.70
2023-04-02T09:59:46.540Z,3.30
2023-04-02T10:02:24.383Z,2.47
2023-04-02T10:04:52.298Z,4.55
2023-04-02T10:07:32.711Z,2.05
2023-04-02T10:10:01.291Z,0.77
2023-04-02T10:12:30.371Z,0.57
2023-04-02T10:14:57.866Z,0.50
2023-04-02T10:17:34.228Z,0.57
2023-04-02T10:20:12.826Z,0.60
2023-04-02T10:22:40.487Z,1.10
2023-04-02T10:25:14.852Z,0.40
2023-04-02T10:27:47.873Z,0.40
2023-04-02T10:30:20.116Z,0.50
2023-04-02T10:33:07.525Z,0.88
2023-04-02T10:35:39.537Z,0.30
2023-04-02T10:38:13.748Z,0.40
2023-04-02T10:40:43.171Z,0.90
2023-04-02T10:43:29.486Z,1.63
2023-04-02T10:46:06.373Z,0.60
2023-04-02T10:48:37.589Z,0.50
2023-04-02T10:51:06.927Z,0.52
2023-04-02T10:53:38.798Z,0.40
2023-04-02T10:56:08.803Z,0.50
2023-04-02T10:58:38.562Z,4.88
2023-04-02T11:01:11.301Z,4.35
2023-04-02T11:03:49.483Z,4.40
2023-04-02T11:06:26.298Z,1.87
2023-04-02T11:08:55.256Z,1.10
2023-04-02T11:11:23.631Z,1.20
2023-04-02T11:13:53.545Z,0.98
2023-04-02T11:16:21.200Z,1.70
2023-04-02T11:19:07.903Z,1.73
2023-04-02T11:21:57.256Z,1.30
2023-04-02T11:24:29.915Z,1.15
2023-04-02T11:27:07.679Z,0.82
2023-04-02T11:29:35.945Z,1.08
2023-04-02T11:32:24.105Z,1.30
2023-04-02T11:35:05.223Z,2.45
2023-04-02T11:37:41.116Z,1.45
2023-04-02T11:40:11.820Z,1.85
2023-04-02T11:42:42.712Z,1.98
2023-04-02T11:45:23.142Z,0.63
2023-04-02T11:48:08.370Z,5.00
2023-04-02T11:50:39.742Z,1.60
2023-04-02T11:53:14.783Z,2.00
2023-04-02T11:55:42.937Z,1.60
2023-04-02T11:58:39.864Z,1.27
2023-04-02T12:01:08.022Z,2.08
2023-04-02T12:03:58.740Z,2.42
2023-04-02T12:06:32.459Z,3.00
2023-04-02T12:09:18.877Z,1.50
2023-04-02T12:11:47.495Z,4.07
2023-04-02T12:14:35.332Z,4.32
2023-04-02T12:17:09.301Z,3.78
2023-04-02T12:19:37.369Z,2.30
2023-04-02T12:22:04.920Z,2.00
2023-04-02T12:24:32.640Z,2.20
2023-04-02T12:27:32.851Z,1.27
2023-04-02T12:30:13.748Z,1.10
2023-04-02T12:32:41.567Z,2.20
2023-04-02T12:35:16.672Z,0.90
2023-04-02T12:37:44.307Z,0.67
2023-04-02T12:40:17.656Z,0.52
2023-04-02T12:42:45.153Z,0.80
2023-04-02T12:45:22.740Z,0.82
2023-04-02T12:47:50.750Z,4.43
2023-04-02T12:50:18.223Z,1.63
2023-04-02T12:52:46.575Z,2.08
2023-04-02T12:55:20.929Z,1.10
2023-04-02T12:57:51.629Z,1.65
2023-04-02T13:00:21.863Z,0.40
2023-04-02T13:02:50.340Z,0.30
2023-04-02T13:05:36.795Z,0.50
2023-04-02T13:08:05.734Z,0.47
2023-04-02T13:13:01.412Z,0.77
2023-04-02T13:15:31.626Z,0.90
2023-04-02T13:18:06.652Z,1.30
2023-04-02T13:20:34.450Z,1.75
2023-04-02T13:23:02.760Z,4.93
2023-04-02T13:25:35.715Z,2.03
2023-04-02T13:28:03.400Z,1.40
2023-04-02T13:30:31.195Z,1.58
2023-04-02T13:32:58.692Z,2.00
2023-04-02T13:35:27.268Z,2.90
2023-04-02T13:37:54.791Z,2.97
2023-04-02T13:40:22.288Z,6.60
2023-04-02T13:42:50.317Z,2.40
2023-04-02T13:45:21.178Z,2.75
2023-04-02T13:47:48.707Z,3.05
2023-04-02T13:50:20.016Z,3.42
2023-04-02T13:52:47.657Z,2.07
2023-04-02T13:55:15.403Z,2.35
2023-04-02T13:57:44.286Z,3.78
2023-04-02T14:00:13.253Z,3.80
2023-04-02T14:02:43.657Z,2.80
2023-04-02T14:05:11.482Z,2.90
2023-04-02T14:07:45.336Z,2.15
2023-04-02T14:10:16.523Z,2.40
2023-04-02T14:12:47.255Z,2.78
2023-04-02T14:15:17.499Z,3.72
2023-04-02T14:17:47.552Z,2.87
2023-04-02T14:20:22.157Z,2.42
2023-04-02T14:23:08.150Z,3.50
2023-04-02T14:25:41.575Z,13.10
2023-04-02T14:28:12.713Z,5.97
2023-04-02T14:30:59.538Z,4.47
2023-04-02T14:33:49.618Z,8.60
2023-04-02T14:36:36.060Z,9.98
2023-04-02T14:39:06.351Z,7.40
2023-04-02T14:41:40.725Z,7.25
2023-04-02T14:44:08.300Z,2.40
2023-04-02T14:46:37.576Z,2.83
2023-04-02T14:49:25.834Z,3.58
2023-04-02T14:52:04.694Z,3.63
2023-04-02T14:54:51.916Z,2.40
2023-04-02T14:57:26.676Z,1.90
2023-04-02T14:59:59.133Z,2.58
2023-04-02T15:02:29.864Z,4.05
2023-04-02T15:05:01.884Z,3.40
2023-04-02T15:07:32.032Z,3.47
2023-04-02T15:10:06.032Z,2.90
2023-04-02T15:12:34.413Z,2.95
2023-04-02T15:15:20.415Z,2.80
2023-04-02T15:17:49.820Z,3.58
2023-04-02T15:20:17.770Z,2.75
2023-04-02T15:22:53.733Z,4.03
2023-04-02T15:25:32.802Z,3.78
2023-04-02T15:28:02.641Z,2.90
2023-04-02T15:30:38.463Z,2.47
2023-04-02T15:33:26.001Z,3.15
2023-04-02T15:35:55.356Z,3.60
2023-04-02T15:38:27.007Z,3.28
2023-04-02T15:40:55.867Z,5.05
2023-04-02T15:43:25.971Z,5.10
2023-04-02T15:45:56.562Z,2.63
2023-04-02T15:48:24.142Z,3.20
2023-04-02T15:50:59.984Z,9.00
2023-04-02T15:53:43.744Z,5.95
2023-04-02T15:56:26.444Z,7.65
2023-04-02T15:59:13.216Z,9.52
2023-04-02T16:01:56.340Z,9.60
2023-04-02T16:04:24.091Z,4.57
2023-04-02T16:07:01.668Z,14.77
2023-04-02T16:09:30.927Z,8.73
2023-04-02T16:12:31.237Z,5.70
2023-04-02T16:15:05.815Z,4.30
2023-04-02T16:17:35.487Z,4.13
2023-04-02T16:20:07.550Z,5.20
2023-04-02T16:22:35.242Z,3.50
2023-04-02T16:25:05.569Z,3.83
2023-04-02T16:27:36.873Z,5.70
2023-04-02T16:30:10.411Z,4.80
2023-04-02T16:32:57.396Z,3.70
2023-04-02T16:38:00.621Z,3.33
2023-04-02T16:40:38.269Z,3.60
2023-04-02T16:43:18.061Z,3.30
2023-04-02T16:46:04.070Z,3.80
2023-04-02T16:48:32.009Z,4.00
2023-04-02T16:51:15.723Z,4.03
2023-04-02T16:54:00.397Z,4.23
2023-04-02T16:56:29.465Z,5.35
2023-04-02T16:58:57.940Z,4.10
2023-04-02T17:01:27.950Z,4.90
2023-04-02T17:03:56.049Z,3.67
2023-04-02T17:06:41.752Z,4.50
2023-04-02T17:09:16.835Z,5.28
2023-04-02T17:11:51.534Z,3.90
2023-04-02T17:14:23.478Z,4.15
2023-04-02T17:16:51.619Z,3.97
2023-04-02T17:19:19.379Z,4.13
2023-04-02T17:21:48.207Z,4.00
2023-04-02T17:24:27.932Z,3.75
2023-04-02T17:27:04.558Z,4.32
2023-04-02T17:29:45.888Z,4.18
2023-04-02T17:32:23.685Z,4.00
2023-04-02T17:34:51.605Z,3.72
2023-04-02T17:37:37.848Z,4.60
2023-04-02T17:40:10.864Z,4.57
2023-04-02T17:42:46.402Z,4.05
2023-04-02T17:45:23.509Z,7.07
2023-04-02T17:47:55.150Z,4.18
2023-04-02T17:50:41.926Z,3.50
2023-04-02T17:53:19.303Z,4.40
2023-04-02T17:56:00.050Z,4.10
2023-04-02T17:58:40.289Z,3.77
2023-04-02T18:01:26.574Z,4.50
2023-04-02T18:03:59.064Z,3.78
2023-04-02T18:06:32.584Z,5.00
2023-04-02T18:09:06.714Z,4.60
2023-04-02T18:11:51.391Z,4.70
2023-04-02T18:14:19.161Z,3.90
2023-04-02T18:17:13.068Z,4.15
2023-04-02T18:19:47.272Z,5.32
2023-04-02T18:22:19.772Z,5.03
2023-04-02T18:25:00.075Z,4.67
2023-04-02T18:27:40.122Z,4.18
2023-04-02T18:30:13.697Z,4.57
2023-04-02T18:32:41.698Z,4.55
2023-04-02T18:35:15.963Z,4.07
2023-04-02T18:37:58.775Z,3.87
2023-04-02T18:40:39.501Z,3.92
2023-04-02T18:43:26.286Z,3.80
2023-04-02T18:45:57.557Z,4.03
2023-04-02T18:48:30.730Z,3.60
2023-04-02T18:50:59.387Z,4.07
2023-04-02T18:53:27.476Z,3.92
2023-04-02T18:55:55.559Z,3.70
2023-04-02T18:58:28.452Z,3.63
2023-04-02T19:00:56.335Z,3.88
2023-04-02T19:03:27.319Z,4.70
2023-04-02T19:06:01.253Z,3.00
2023-04-02T19:08:34.086Z,4.10
2023-04-02T19:11:03.237Z,3.42
2023-04-02T19:13:31.036Z,2.90
2023-04-02T19:15:59.258Z,3.07
2023-04-02T19:18:42.161Z,4.10
2023-04-02T19:21:30.228Z,2.67
2023-04-02T19:23:58.721Z,2.92
2023-04-02T19:26:28.676Z,2.28
2023-04-02T19:28:59.542Z,2.77
2023-04-02T19:31:34.908Z,2.75
2023-04-02T19:34:15.027Z,2.00
2023-04-02T19:36:45.438Z,2.50
2023-04-02T19:39:32.220Z,2.60
2023-04-02T19:42:02.546Z,2.40
2023-04-02T19:44:30.459Z,2.95
2023-04-02T19:46:58.478Z,2.83
2023-04-02T19:49:30.921Z,2.60
2023-04-02T19:51:58.888Z,2.60
2023-04-02T19:54:26.666Z,2.10
2023-04-02T19:56:54.478Z,2.35
2023-04-02T19:59:22.284Z,2.10
2023-04-02T20:01:50.152Z,3.03
2023-04-02T20:04:17.954Z,2.80
2023-04-02T20:06:45.716Z,2.67
2023-04-02T20:09:13.700Z,3.30
2023-04-02T20:11:41.652Z,2.42
2023-04-02T20:14:09.343Z,2.53
2023-04-02T20:16:38.716Z,2.58
2023-04-02T20:19:06.703Z,2.80
2023-04-02T20:21:38.429Z,2.65
2023-04-02T20:24:07.109Z,3.08
2023-04-02T20:26:35.301Z,2.67
2023-04-02T20:29:02.827Z,3.15
2023-04-02T20:31:30.712Z,3.27
2023-04-02T20:33:58.864Z,3.22
2023-04-02T20:36:27.019Z,2.95
2023-04-02T20:38:54.638Z,2.38
2023-04-02T20:41:23.154Z,2.80
2023-04-02T20:43:51.385Z,2.80
2023-04-02T20:46:19.578Z,2.95
2023-04-02T20:48:47.530Z,2.83
2023-04-02T20:51:15.492Z,3.40
2023-04-02T20:53:58.590Z,3.72
2023-04-02T20:56:26.736Z,2.80
2023-04-02T20:58:54.468Z,2.50
2023-04-02T21:01:26.058Z,2.85
2023-04-02T21:03:57.317Z,2.38
2023-04-02T21:06:25.540Z,3.92
2023-04-02T21:08:53.196Z,3.07
2023-04-02T21:11:22.487Z,2.78
2023-04-02T21:13:50.137Z,2.90
2023-04-02T21:16:19.395Z,2.70
2023-04-02T21:18:47.153Z,2.20
2023-04-02T21:21:14.751Z,2.90
2023-04-02T21:23:42.788Z,3.13
2023-04-02T21:26:14.719Z,1.75
2023-04-02T21:28:42.355Z,2.22
2023-04-02T21:31:11.048Z,2.60
2023-04-02T21:33:39.559Z,2.83
2023-04-02T21:36:11.425Z,2.67
2023-04-02T21:38:42.561Z,2.35
2023-04-02T21:41:17.167Z,1.73
2023-04-02T21:43:46.038Z,2.40
2023-04-02T21:46:13.536Z,2.50
2023-04-02T21:48:42.177Z,2.40
2023-04-02T21:51:10.946Z,2.45
2023-04-02T21:53:38.659Z,2.10
2023-04-02T21:56:07.057Z,2.13
2023-04-02T21:58:34.988Z,2.50
2023-04-02T22:01:02.782Z,2.17
2023-04-02T22:03:32.016Z,1.77
2023-04-02T22:06:03.346Z,2.15
2023-04-02T22:08:30.797Z,1.85
2023-04-02T22:10:58.312Z,2.33
2023-04-02T22:13:26.235Z,1.85
2023-04-02T22:15:53.616Z,2.13
2023-04-02T22:18:21.075Z,1.95
2023-04-02T22:20:48.502Z,1.55
2023-04-02T22:23:15.952Z,1.63
2023-04-02T22:25:43.362Z,1.90
2023-04-02T22:28:10.996Z,2.22
2023-04-02T22:30:38.741Z,2.10
2023-04-02T22:33:07.035Z,1.80
2023-04-02T22:35:34.495Z,2.30
2023-04-02T22:38:01.988Z,1.98
2023-04-02T22:40:29.742Z,2.13
2023-04-02T22:42:57.213Z,1.90
2023-04-02T22:45:24.650Z,2.50
2023-04-02T22:47:52.163Z,2.73
2023-04-02T22:50:19.898Z,2.25
2023-04-02T22:52:47.449Z,2.22
2023-04-02T22:55:18.085Z,2.15
2023-04-02T22:57:45.852Z,2.42
2023-04-02T23:00:14.848Z,1.93
2023-04-02T23:02:42.443Z,2.80
2023-04-02T23:05:11.345Z,2.35
2023-04-02T23:07:38.848Z,2.38
2023-04-02T23:10:06.602Z,2.28
2023-04-02T23:12:34.128Z,2.23
2023-04-02T23:15:02.258Z,2.13
2023-04-02T23:17:29.842Z,2.78
2023-04-02T23:19:57.356Z,2.10
2023-04-02T23:22:24.814Z,2.22
2023-04-02T23:24:54.599Z,2.30
2023-04-02T23:27:22.608Z,2.90
2023-04-02T23:29:50.489Z,2.10
2023-04-02T23:32:19.380Z,2.50
2023-04-02T23:34:47.003Z,2.42
2023-04-02T23:37:14.657Z,2.57
2023-04-02T23:39:42.135Z,2.33
2023-04-02T23:42:10.381Z,2.67
2023-04-02T23:44:37.940Z,2.20
2023-04-02T23:47:05.855Z,2.30
2023-04-02T23:49:33.432Z,1.97
2023-04-02T23:52:00.882Z,1.90
2023-04-02T23:54:28.496Z,1.85
2023-04-02T23:56:56.065Z,1.88
2023-04-02T23:59:23.607Z,1.65
